Time;durP1;ratioP1;P1;durP2;ratioP2;P2;SDS_P1;SDS_P2;PMS_P1;PMS_P2;Temp;Humidity;BMP_temperature;BMP_pressure;BME280_temperature;BME280_humidity;BME280_pressure;Samples;Min_cycle;Max_cycle;Signal;HPM_P1;HPM_P2
2021/09/05 00:01:31;;;;;;;9.48;3.38;;;;;;;12.23;70.32;100300.94;5119878;28;20448;-48
2021/09/05 00:04:01;;;;;;;5.13;2.97;;;;;;;12.26;70.42;100292.13;5119729;28;20048;-48
2021/09/05 00:06:28;;;;;;;7.85;2.58;;;;;;;12.29;70.76;100299.94;5121099;28;20052;-48
2021/09/05 00:08:54;;;;;;;7.15;2.92;;;;;;;12.25;70.60;100288.66;5120261;28;20048;-48
2021/09/05 00:11:20;;;;;;;6.50;3.38;;;;;;;12.30;70.45;100301.66;5119915;28;20055;-48
2021/09/05 00:13:45;;;;;;;5.10;2.60;;;;;;;12.29;70.64;100300.81;5119784;28;20035;-48
2021/09/05 00:16:11;;;;;;;4.95;2.47;;;;;;;12.31;69.99;100309.47;5119818;28;20051;-48
2021/09/05 00:18:37;;;;;;;9.48;3.65;;;;;;;12.34;70.13;100309.41;5119408;28;20378;-48
2021/09/05 00:21:03;;;;;;;9.40;3.67;;;;;;;12.37;70.27;100311.09;5119553;28;20055;-48
2021/09/05 00:23:29;;;;;;;7.80;4.25;;;;;;;12.41;70.51;100312.75;5120243;28;20082;-48
2021/09/05 00:25:54;;;;;;;6.38;3.58;;;;;;;12.39;70.51;100301.44;5118913;28;20051;-48
2021/09/05 00:28:21;;;;;;;7.82;3.63;;;;;;;12.34;70.54;100295.41;5119315;28;20497;-48
2021/09/05 00:30:47;;;;;;;7.88;4.43;;;;;;;12.44;70.32;100310.06;5119292;28;20445;-48
2021/09/05 00:33:13;;;;;;;8.23;3.47;;;;;;;12.47;69.41;100311.75;5119504;28;20044;-48
2021/09/05 00:35:38;;;;;;;5.32;2.92;;;;;;;12.48;69.70;100309.09;5120504;28;20052;-48
2021/09/05 00:38:04;;;;;;;4.97;2.97;;;;;;;12.50;69.50;100314.31;5119687;28;20051;-48
2021/09/05 00:40:30;;;;;;;5.10;3.17;;;;;;;12.51;69.63;100316.00;5119309;28;20363;-48
2021/09/05 00:42:56;;;;;;;6.65;3.22;;;;;;;12.51;69.66;100316.91;5119340;28;20437;-48
2021/09/05 00:45:22;;;;;;;7.43;2.72;;;;;;;12.52;69.52;100315.13;5101432;28;20104;-48
2021/09/05 00:47:47;;;;;;;5.85;2.75;;;;;;;12.49;69.35;100323.94;5118624;28;20035;-48
2021/09/05 00:50:13;;;;;;;6.50;3.28;;;;;;;12.48;69.47;100330.13;5118876;28;20039;-48
2021/09/05 00:52:39;;;;;;;8.82;3.47;;;;;;;12.46;69.81;100326.66;5118906;28;20031;-48
2021/09/05 00:55:06;;;;;;;10.52;3.25;;;;;;;12.42;69.78;100318.91;5118211;28;20047;-48
2021/09/05 00:57:32;;;;;;;4.35;2.97;;;;;;;12.40;69.77;100332.91;5117837;28;20373;-48
2021/09/05 00:59:59;;;;;;;3.90;2.60;;;;;;;12.26;70.00;100307.91;5118585;28;20407;-48
2021/09/05 01:02:27;;;;;;;5.40;2.78;;;;;;;12.33;70.47;100336.59;5118713;28;20063;-48
2021/09/05 01:04:54;;;;;;;5.25;2.70;;;;;;;12.30;70.35;100334.03;5117712;28;20109;-48
2021/09/05 01:07:23;;;;;;;5.07;2.75;;;;;;;12.25;70.60;100329.78;5117700;28;20044;-48
2021/09/05 01:09:49;;;;;;;4.88;3.00;;;;;;;12.18;71.09;100336.09;5117963;28;20430;-48
2021/09/05 01:12:15;;;;;;;6.68;2.90;;;;;;;12.12;70.65;100330.09;5117913;28;20387;-48
2021/09/05 01:14:41;;;;;;;5.40;3.13;;;;;;;12.15;70.42;100334.38;5118725;28;20065;-48
2021/09/05 01:17:09;;;;;;;5.70;2.95;;;;;;;12.14;70.63;100340.53;5118647;28;20051;-48
2021/09/05 01:19:47;;;;;;;3.45;2.40;;;;;;;12.12;70.58;100337.09;5118542;28;20089;-48
2021/09/05 01:22:48;;;;;;;6.35;3.00;;;;;;;12.08;70.50;100338.91;5118160;28;20056;-48
2021/09/05 01:25:52;;;;;;;6.85;3.38;;;;;;;12.04;70.68;100336.41;5096295;28;20056;-48
2021/09/05 01:28:36;;;;;;;4.45;2.63;;;;;;;11.98;71.03;100344.41;5096175;28;20051;-48
2021/09/05 01:31:23;;;;;;;7.55;2.83;;;;;;;11.88;71.38;100338.50;5086293;28;20454;-48
2021/09/05 01:34:27;;;;;;;5.40;2.45;;;;;;;11.83;71.75;100346.47;5076438;28;20052;-48
2021/09/05 01:37:13;;;;;;;6.50;3.40;;;;;;;11.84;71.73;100344.69;5075414;28;20044;-48
2021/09/05 01:40:11;;;;;;;5.20;2.95;;;;;;;11.78;72.07;100348.31;5110484;28;20092;-48
2021/09/05 01:43:00;;;;;;;6.47;2.97;;;;;;;11.77;72.44;100345.72;5108099;28;20047;-48
2021/09/05 01:46:01;;;;;;;7.18;2.95;;;;;;;11.76;72.67;100342.22;5117210;28;20127;-48
2021/09/05 01:48:45;;;;;;;8.30;2.80;;;;;;;11.70;72.47;100331.88;5118045;28;20112;-48
2021/09/05 01:51:29;;;;;;;4.57;2.60;;;;;;;11.74;72.99;100335.31;5118010;28;20062;-48
2021/09/05 01:54:18;;;;;;;8.60;2.75;;;;;;;11.72;73.22;100344.94;5107713;28;20059;-48
2021/09/05 01:57:03;;;;;;;8.73;3.58;;;;;;;11.70;72.83;100345.00;5117866;28;20047;-48
2021/09/05 01:59:48;;;;;;;6.18;2.30;;;;;;;11.70;72.52;100342.38;5117497;28;20403;-48
2021/09/05 02:02:43;;;;;;;6.47;2.72;;;;;;;11.67;72.67;100348.53;5112836;28;20131;-48
2021/09/05 02:05:27;;;;;;;7.80;2.85;;;;;;;11.65;72.62;100344.22;5117477;28;20044;-48
2021/09/05 02:08:13;;;;;;;5.15;2.65;;;;;;;11.63;72.70;100346.00;5116602;28;20051;-48
2021/09/05 02:11:17;;;;;;;12.00;3.30;;;;;;;11.59;72.46;100347.81;5095382;28;20048;-48
2021/09/05 02:14:03;;;;;;;4.40;2.83;;;;;;;11.58;72.61;100350.50;5094564;28;20047;-48
2021/09/05 02:16:47;;;;;;;8.50;3.20;;;;;;;11.54;72.80;100356.72;5111518;28;20043;-48
2021/09/05 02:19:42;;;;;;;6.60;3.08;;;;;;;11.50;72.75;100355.00;5103614;28;20051;-48
2021/09/05 02:22:26;;;;;;;6.63;2.63;;;;;;;11.43;73.13;100355.13;5116674;28;20035;-48
2021/09/05 02:25:12;;;;;;;8.60;3.00;;;;;;;11.43;72.80;100360.38;5117391;28;20047;-48
2021/09/05 02:28:07;;;;;;;4.60;3.17;;;;;;;11.41;73.19;100361.34;5112575;28;20051;-48
2021/09/05 02:31:02;;;;;;;6.57;3.42;;;;;;;11.32;73.57;100365.00;5097796;28;20442;-48
2021/09/05 02:33:47;;;;;;;5.82;3.35;;;;;;;11.28;73.74;100351.94;5117800;28;20054;-48
2021/09/05 02:36:28;;;;;;;6.65;3.25;;;;;;;11.26;73.68;100361.63;5116379;28;20502;-48
2021/09/05 02:39:12;;;;;;;5.70;2.58;;;;;;;11.22;73.83;100369.53;5116912;28;20044;-48
2021/09/05 02:41:56;;;;;;;5.95;3.00;;;;;;;11.20;73.92;100365.22;5116906;28;20413;-48
2021/09/05 02:44:51;;;;;;;5.38;2.78;;;;;;;11.14;74.25;100366.19;5107273;28;20070;-48
2021/09/05 02:47:36;;;;;;;7.00;3.53;;;;;;;11.11;73.85;100361.00;5116990;28;20051;-48
2021/09/05 02:50:29;;;;;;;;;;;;;;;10.93;74.88;100359.59;5103171;28;20055;-48
2021/09/05 02:53:23;;;;;;;6.57;2.83;;;;;;;10.96;74.12;100361.28;5116644;28;19920;-48
2021/09/05 02:56:14;;;;;;;5.60;2.95;;;;;;;10.95;73.87;100354.31;5116009;28;20047;-48
2021/09/05 02:59:08;;;;;;;4.13;2.70;;;;;;;10.93;74.10;100356.97;5116412;28;20053;-48
2021/09/05 03:01:53;;;;;;;6.95;2.97;;;;;;;10.88;74.24;100363.16;5116842;28;20062;-48
2021/09/05 03:04:37;;;;;;;6.65;3.17;;;;;;;10.83;74.83;100360.66;5116570;28;20346;-48
2021/09/05 03:07:32;;;;;;;6.90;2.92;;;;;;;10.84;74.21;100369.38;5116202;28;20035;-48
2021/09/05 03:10:36;;;;;;;4.95;3.15;;;;;;;10.76;74.41;100367.75;5094338;28;20430;-48
2021/09/05 03:13:22;;;;;;;7.53;3.33;;;;;;;10.80;74.50;100370.31;5094391;28;20052;-48
2021/09/05 03:16:05;;;;;;;8.38;3.33;;;;;;;10.74;74.42;100377.38;5104502;28;20044;-48
2021/09/05 03:18:55;;;;;;;6.18;3.25;;;;;;;10.71;74.72;100380.03;5115773;28;20052;-48
2021/09/05 03:21:40;;;;;;;7.05;3.00;;;;;;;10.67;74.34;100380.13;5116248;28;20048;-48
2021/09/05 03:24:29;;;;;;;5.15;2.83;;;;;;;10.62;74.57;100384.56;5115735;28;20051;-48
2021/09/05 03:27:21;;;;;;;5.82;3.20;;;;;;;10.51;75.01;100377.75;5107945;28;20526;-48
2021/09/05 03:30:10;;;;;;;7.55;3.45;;;;;;;10.43;74.91;100370.91;5096928;28;20454;-48
2021/09/05 03:32:59;;;;;;;5.70;3.13;;;;;;;10.45;75.40;100382.22;5116151;28;20054;-48
2021/09/05 03:35:57;;;;;;;8.13;3.80;;;;;;;10.47;75.41;100383.06;5104427;28;20052;-48
2021/09/05 03:38:41;;;;;;;5.22;2.50;;;;;;;10.45;75.55;100384.84;5115566;28;20040;-48
2021/09/05 03:41:26;;;;;;;6.60;3.20;;;;;;;10.45;75.43;100390.06;5115347;28;20391;-48
2021/09/05 03:44:17;;;;;;;7.72;3.08;;;;;;;10.43;75.35;100384.88;5116029;28;20066;-48
2021/09/05 03:47:02;;;;;;;6.05;3.17;;;;;;;10.41;75.40;100401.50;5116132;28;20048;-48
2021/09/05 03:49:49;;;;;;;5.32;2.78;;;;;;;10.36;75.92;100396.31;5115801;28;20117;-48
2021/09/05 03:52:15;;;;;;;6.32;3.70;;;;;;;10.38;75.73;100391.06;5115276;28;20364;-48
2021/09/05 03:54:42;;;;;;;4.53;2.85;;;;;;;10.36;75.55;100398.94;5115767;28;20402;-48
2021/09/05 03:57:08;;;;;;;7.32;3.13;;;;;;;10.36;75.45;100396.31;5115403;28;20335;-48
2021/09/05 03:59:35;;;;;;;8.63;3.90;;;;;;;10.38;75.74;100404.16;5115037;28;20055;-48
2021/09/05 04:02:05;;;;;;;5.60;3.30;;;;;;;10.32;75.93;100406.88;5118128;28;20081;-48
2021/09/05 04:04:31;;;;;;;5.13;2.83;;;;;;;10.32;75.92;100412.09;5119294;28;20039;-48
2021/09/05 04:07:03;;;;;;;5.53;2.85;;;;;;;10.29;76.04;100413.88;5118951;28;20112;-48
2021/09/05 04:12:14;;;;;;;8.48;3.95;;;;;;;10.24;76.29;100420.91;5119962;28;20070;-48
2021/09/05 04:14:40;;;;;;;6.03;2.90;;;;;;;10.24;76.36;100426.13;5119600;28;20437;-48
2021/09/05 04:17:05;;;;;;;7.35;3.38;;;;;;;10.26;76.28;100427.00;5119590;28;20051;-48
2021/09/05 04:19:31;;;;;;;6.70;3.58;;;;;;;10.24;76.59;100438.38;5120042;28;20039;-48
2021/09/05 04:21:57;;;;;;;8.43;4.05;;;;;;;10.26;76.16;100440.09;5119350;28;20055;-48
2021/09/05 04:24:23;;;;;;;5.47;2.80;;;;;;;10.20;76.63;100445.38;5119970;28;20048;-48
2021/09/05 04:26:49;;;;;;;7.43;3.35;;;;;;;10.23;76.73;100442.72;5119645;28;20047;-48
2021/09/05 04:29:15;;;;;;;7.97;2.97;;;;;;;10.23;76.76;100439.22;5119279;28;20441;-48
2021/09/05 04:31:41;;;;;;;8.02;3.40;;;;;;;10.23;76.57;100442.72;5119569;28;20127;-48
2021/09/05 04:34:07;;;;;;;6.18;2.60;;;;;;;10.24;76.53;100444.47;5120091;28;20318;-48
2021/09/05 04:36:32;;;;;;;7.97;3.53;;;;;;;10.23;76.92;100447.94;5119134;28;20051;-48
2021/09/05 04:38:58;;;;;;;7.60;3.63;;;;;;;10.24;76.86;100443.59;5119104;28;20039;-48
2021/09/05 04:41:24;;;;;;;8.70;3.88;;;;;;;10.28;76.60;100448.81;5119086;28;20055;-48
2021/09/05 04:43:50;;;;;;;7.20;3.47;;;;;;;10.29;76.69;100447.91;5119355;28;20044;-48
2021/09/05 04:46:15;;;;;;;8.02;4.10;;;;;;;10.31;76.83;100450.50;5118962;28;20362;-48
2021/09/05 04:48:41;;;;;;;7.18;3.47;;;;;;;10.35;76.73;100451.34;5119243;28;20058;-48
2021/09/05 04:51:07;;;;;;;5.50;3.13;;;;;;;10.37;76.81;100446.97;5119186;28;20043;-48
2021/09/05 04:53:33;;;;;;;7.38;3.42;;;;;;;10.40;76.39;100449.50;5119135;28;20035;-48
2021/09/05 04:55:59;;;;;;;7.78;3.60;;;;;;;10.40;76.82;100452.13;5118846;28;20054;-48
2021/09/05 04:58:24;;;;;;;10.23;3.83;;;;;;;10.42;76.52;100452.97;5119019;28;20044;-48
2021/09/05 05:00:50;;;;;;;7.00;3.97;;;;;;;10.42;76.67;100459.06;5101097;28;20058;-48
2021/09/05 05:03:17;;;;;;;6.05;2.60;;;;;;;10.50;76.43;100467.69;5118656;28;20049;-48
2021/09/05 05:05:43;;;;;;;6.32;3.38;;;;;;;10.49;76.25;100462.47;5118569;28;20510;-48
2021/09/05 05:08:09;;;;;;;7.13;3.20;;;;;;;10.57;76.32;100472.84;5117998;28;20069;-48
2021/09/05 05:10:35;;;;;;;8.68;3.95;;;;;;;10.65;76.14;100477.06;5118815;28;20044;-48
2021/09/05 05:13:01;;;;;;;7.35;3.67;;;;;;;10.96;76.59;100485.34;5118203;28;20479;-48
2021/09/05 05:15:26;;;;;;;5.20;3.20;;;;;;;11.52;75.99;100490.50;5118419;28;20043;-48
2021/09/05 05:17:52;;;;;;;5.50;3.08;;;;;;;12.05;74.27;100496.50;5118376;28;20427;-48
2021/09/05 05:20:18;;;;;;;6.10;3.30;;;;;;;12.59;73.26;100498.88;5118300;28;20075;-48
2021/09/05 05:22:44;;;;;;;7.40;3.45;;;;;;;13.21;70.65;100498.28;5118356;28;20067;-48
2021/09/05 05:25:10;;;;;;;6.93;4.05;;;;;;;13.56;67.63;100500.06;5118527;28;20058;-48
2021/09/05 05:27:37;;;;;;;7.50;3.55;;;;;;;13.87;66.82;100507.09;5118482;28;20058;-48
2021/09/05 05:30:03;;;;;;;6.72;3.45;;;;;;;14.28;66.15;100494.53;5118425;28;20044;-48
2021/09/05 05:32:29;;;;;;;5.68;3.22;;;;;;;14.65;64.72;100498.72;5118381;28;20357;-48
2021/09/05 05:34:55;;;;;;;6.97;4.07;;;;;;;15.10;64.36;100491.13;5117194;28;20040;-48
2021/09/05 05:37:21;;;;;;;7.78;4.22;;;;;;;15.56;61.80;100494.00;5118598;28;20069;-49
2021/09/05 05:39:47;;;;;;;6.35;3.13;;;;;;;15.83;61.83;100502.78;5118176;28;20127;-49
2021/09/05 05:42:13;;;;;;;8.52;3.97;;;;;;;16.12;58.81;100502.56;5118643;28;20058;-49
2021/09/05 05:44:38;;;;;;;7.38;4.28;;;;;;;16.41;57.74;100500.63;5117894;28;20040;-49
2021/09/05 05:47:04;;;;;;;9.05;3.35;;;;;;;16.51;57.55;100495.81;5118107;27;20051;-49
2021/09/05 05:49:32;;;;;;;6.05;3.90;;;;;;;16.56;56.68;100504.44;5118362;28;20388;-49
2021/09/05 05:51:58;;;;;;;6.55;3.15;;;;;;;16.66;56.57;100499.66;5117743;28;20044;-49
2021/09/05 05:54:24;;;;;;;5.15;3.05;;;;;;;16.89;56.78;100501.41;5117936;28;20067;-49
2021/09/05 05:56:50;;;;;;;7.70;3.40;;;;;;;16.98;55.01;100501.06;5117686;28;20040;-49
2021/09/05 05:59:15;;;;;;;6.32;2.90;;;;;;;17.32;55.34;100499.66;5117580;28;20358;-49
2021/09/05 06:01:42;;;;;;;6.63;3.45;;;;;;;17.44;53.88;100510.59;5117836;28;20115;-49
2021/09/05 06:04:10;;;;;;;11.32;3.42;;;;;;;17.41;52.68;100509.84;5117777;28;20052;-49
2021/09/05 06:06:38;;;;;;;5.15;3.03;;;;;;;17.49;53.63;100521.00;5117467;28;20040;-49
2021/09/05 06:09:04;;;;;;;7.38;3.15;;;;;;;17.63;53.80;100515.97;5117424;28;20043;-49
2021/09/05 06:11:29;;;;;;;7.20;3.35;;;;;;;17.92;53.40;100527.13;5117605;28;20051;-49
2021/09/05 06:13:55;;;;;;;6.22;2.92;;;;;;;18.22;52.91;100522.22;5117341;28;20042;-49
2021/09/05 06:16:21;;;;;;;5.38;3.00;;;;;;;18.58;54.06;100527.63;5117323;27;20123;-49
2021/09/05 06:18:47;;;;;;;6.43;3.10;;;;;;;18.72;51.84;100528.75;5117473;28;20349;-49
2021/09/05 06:21:12;;;;;;;4.70;2.92;;;;;;;18.69;51.04;100528.00;5117139;28;20108;-49
2021/09/05 06:23:39;;;;;;;6.35;3.35;;;;;;;18.68;50.67;100534.22;5116530;27;20075;-49
2021/09/05 06:26:04;;;;;;;8.52;3.03;;;;;;;18.88;51.48;100530.69;5117143;28;20100;-49
2021/09/05 06:28:30;;;;;;;5.47;3.03;;;;;;;19.18;50.76;100537.22;5117003;28;20051;-49
2021/09/05 06:30:56;;;;;;;5.57;3.45;;;;;;;19.23;50.23;100540.50;5099543;28;20127;-49
2021/09/05 06:33:22;;;;;;;4.82;3.08;;;;;;;19.05;48.41;100537.81;5117260;28;20128;-49
2021/09/05 06:35:47;;;;;;;4.93;3.08;;;;;;;19.05;50.39;100540.47;5117215;28;20434;-49
2021/09/05 06:38:13;;;;;;;6.72;3.17;;;;;;;19.26;50.94;100535.03;5117165;28;20051;-49
2021/09/05 06:40:39;;;;;;;5.93;3.33;;;;;;;19.32;49.68;100532.06;5116707;28;20070;-50
2021/09/05 06:43:05;;;;;;;5.45;3.70;;;;;;;19.31;49.79;100543.66;5099315;28;20107;-49
2021/09/05 06:45:31;;;;;;;9.40;4.63;;;;;;;19.35;49.32;100531.94;5117027;28;20074;-50
2021/09/05 06:47:57;;;;;;;7.07;4.97;;;;;;;19.41;49.16;100536.94;5117050;28;20433;-50
2021/09/05 06:50:24;;;;;;;9.70;5.97;;;;;;;19.38;48.76;100542.41;5116138;28;20139;-50
2021/09/05 06:52:49;;;;;;;5.90;4.40;;;;;;;19.55;49.39;100538.88;5117268;28;20402;-50
2021/09/05 06:55:15;;;;;;;7.07;5.13;;;;;;;19.68;48.85;100547.13;5117172;28;20048;-50
2021/09/05 06:57:41;;;;;;;7.05;4.45;;;;;;;19.52;48.77;100547.88;5116862;28;20047;-50
2021/09/05 07:00:07;;;;;;;6.20;4.97;;;;;;;19.65;49.14;100553.44;5117003;28;20375;-50
2021/09/05 07:02:33;;;;;;;10.50;4.90;;;;;;;19.76;48.54;100556.44;5115988;28;20059;-50
2021/09/05 07:04:59;;;;;;;7.03;4.90;;;;;;;19.74;47.47;100557.44;5116800;28;20051;-50
2021/09/05 07:07:25;;;;;;;9.02;5.15;;;;;;;19.70;48.69;100554.09;5116740;28;20350;-50
2021/09/05 07:09:50;;;;;;;9.68;5.35;;;;;;;19.88;48.30;100565.56;5116478;28;20055;-50
2021/09/05 07:12:16;;;;;;;8.23;5.45;;;;;;;19.92;47.86;100566.25;5116687;28;20047;-50
2021/09/05 07:14:42;;;;;;;8.55;5.82;;;;;;;19.95;47.37;100574.06;5116696;28;20048;-50
2021/09/05 07:17:08;;;;;;;7.85;5.53;;;;;;;19.96;47.63;100579.31;5099109;28;20063;-50
2021/09/05 07:19:33;;;;;;;9.13;5.82;;;;;;;19.96;47.99;100581.97;5116579;28;20047;-50
2021/09/05 07:21:59;;;;;;;7.78;5.30;;;;;;;19.85;47.58;100586.97;5116442;28;20365;-50
2021/09/05 07:24:25;;;;;;;8.60;4.47;;;;;;;19.89;48.41;100571.72;5116351;28;20044;-49
2021/09/05 07:26:51;;;;;;;5.80;3.72;;;;;;;19.97;48.19;100582.84;5115716;28;20047;-49
2021/09/05 07:29:18;;;;;;;9.07;3.58;;;;;;;20.08;47.40;100593.75;5116787;28;20047;-49
2021/09/05 07:31:44;;;;;;;4.82;3.03;;;;;;;20.05;47.95;100588.59;5116194;28;20130;-50
2021/09/05 07:34:10;;;;;;;4.53;2.75;;;;;;;20.06;48.46;100593.00;5081707;28;20131;-50
2021/09/05 07:36:36;;;;;;;6.18;2.95;;;;;;;20.11;48.64;100598.06;5118330;28;20043;-50
2021/09/05 07:39:03;;;;;;;6.28;3.13;;;;;;;20.29;48.38;100597.13;5120537;28;20053;-50
2021/09/05 07:41:29;;;;;;;4.85;2.78;;;;;;;20.19;47.20;100601.19;5120375;28;20410;-50
2021/09/05 07:43:56;;;;;;;9.50;2.63;;;;;;;20.18;45.54;100594.13;5120497;28;20069;-50
2021/09/05 07:46:21;;;;;;;6.93;2.55;;;;;;;20.23;48.05;100595.63;5120490;28;20437;-50
2021/09/05 07:48:47;;;;;;;3.92;2.40;;;;;;;20.23;46.00;100600.09;5120469;28;20350;-50
2021/09/05 07:51:13;;;;;;;6.18;2.50;;;;;;;20.24;46.74;100596.47;5120045;28;20096;-50
2021/09/05 07:53:39;;;;;;;4.75;2.67;;;;;;;20.21;47.27;100586.00;5120052;28;20044;-50
2021/09/05 07:56:05;;;;;;;6.45;2.33;;;;;;;20.52;46.77;100603.91;5102756;28;20056;-50
2021/09/05 07:58:31;;;;;;;4.75;2.33;;;;;;;20.44;45.11;100612.25;5120266;28;20391;-50
2021/09/05 08:00:56;;;;;;;3.28;2.00;;;;;;;20.57;46.24;100617.78;5119010;28;20043;-50
2021/09/05 08:03:22;;;;;;;5.57;2.22;;;;;;;20.41;44.43;100615.09;5119290;28;20113;-50
2021/09/05 08:05:48;;;;;;;6.22;1.88;;;;;;;20.50;45.46;100613.72;5119881;28;20044;-50
2021/09/05 08:08:16;;;;;;;3.33;2.08;;;;;;;20.54;45.63;100618.84;5120062;28;20471;-50
2021/09/05 08:10:42;;;;;;;3.70;2.25;;;;;;;20.58;45.56;100616.88;5102183;28;20055;-50
2021/09/05 08:13:08;;;;;;;3.25;1.67;;;;;;;20.72;44.54;100624.09;5119963;28;20429;-50
2021/09/05 08:15:33;;;;;;;7.05;2.40;;;;;;;20.68;45.12;100631.41;5119959;28;20415;-50
2021/09/05 08:17:59;;;;;;;4.80;1.88;;;;;;;20.64;44.05;100624.53;5119562;28;20392;-50
2021/09/05 08:20:25;;;;;;;3.70;1.77;;;;;;;20.44;42.93;100625.56;5119389;28;20051;-50
2021/09/05 08:22:51;;;;;;;3.53;1.63;;;;;;;20.46;43.85;100630.78;5119797;28;20051;-50
2021/09/05 08:25:16;;;;;;;3.30;1.52;;;;;;;20.54;45.00;100637.47;5119720;28;20437;-50
2021/09/05 08:27:42;;;;;;;2.65;1.52;;;;;;;20.76;44.69;100629.16;5119095;28;20085;-50
2021/09/05 08:30:09;;;;;;;3.53;2.00;;;;;;;20.81;44.10;100623.59;5119615;28;20089;-50
2021/09/05 08:32:34;;;;;;;4.03;1.92;;;;;;;20.88;42.93;100629.44;5119308;28;20067;-50
2021/09/05 08:35:00;;;;;;;3.00;1.30;;;;;;;21.01;43.30;100628.69;5119231;28;20078;-50
2021/09/05 08:37:26;;;;;;;4.15;1.73;;;;;;;21.17;42.45;100635.81;5101686;28;20048;-50
2021/09/05 08:39:52;;;;;;;4.45;1.83;;;;;;;21.24;42.04;100635.38;5119141;28;20050;-50
2021/09/05 08:42:18;;;;;;;2.78;1.60;;;;;;;21.27;42.25;100630.84;5119092;28;20054;-50
2021/09/05 08:44:43;;;;;;;3.40;1.35;;;;;;;21.58;44.13;100632.63;5119081;28;20043;-50
2021/09/05 08:47:09;;;;;;;2.38;1.38;;;;;;;21.73;42.45;100639.75;5118652;28;20054;-50
2021/09/05 08:49:36;;;;;;;4.25;2.05;;;;;;;21.68;39.53;100632.03;5118957;28;20046;-50
2021/09/05 08:52:02;;;;;;;3.85;1.95;;;;;;;21.70;41.09;100629.25;5119194;28;20048;-50
2021/09/05 08:54:28;;;;;;;3.03;1.85;;;;;;;21.72;42.22;100630.03;5118238;28;20426;-50
2021/09/05 08:56:54;;;;;;;5.97;1.88;;;;;;;21.89;42.31;100626.38;5117997;28;20101;-50
2021/09/05 08:59:20;;;;;;;4.38;2.13;;;;;;;22.10;41.90;100637.59;5118975;28;20104;-50
2021/09/05 09:01:53;;;;;;;4.15;1.83;;;;;;;22.15;41.41;100635.47;5117852;28;20327;-50
2021/09/05 09:04:19;;;;;;;3.05;1.85;;;;;;;22.25;41.33;100626.00;5119176;27;20040;-50
2021/09/05 09:06:46;;;;;;;4.97;1.70;;;;;;;22.27;39.32;100631.25;5118588;28;20044;-50
2021/09/05 09:09:12;;;;;;;4.90;2.45;;;;;;;22.28;37.43;100641.81;5100920;28;20051;-50
2021/09/05 09:11:54;;;;;;;4.13;3.00;;;;;;;22.31;37.58;100643.47;5118861;28;20127;-50
2021/09/05 09:14:45;;;;;;;3.60;2.70;;;;;;;22.16;36.97;100638.09;5118465;28;20062;-50
2021/09/05 09:17:12;;;;;;;5.00;2.88;;;;;;;22.09;36.65;100635.84;5118735;27;20070;-50
2021/09/05 09:19:38;;;;;;;2.42;1.95;;;;;;;22.21;37.77;100647.63;5118698;28;20413;-50
2021/09/05 09:22:04;;;;;;;4.07;3.25;;;;;;;22.07;35.54;100632.44;5117464;28;20138;-50
2021/09/05 09:24:43;;;;;;;5.40;3.88;;;;;;;21.99;35.65;100635.53;5118333;27;20036;-50
2021/09/05 09:27:09;;;;;;;5.70;4.38;;;;;;;22.12;37.18;100631.19;5100529;28;20056;-50
2021/09/05 09:29:36;;;;;;;5.03;4.13;;;;;;;22.27;37.75;100632.13;5118461;28;20125;-50
2021/09/05 09:32:07;;;;;;;6.40;3.78;;;;;;;22.42;36.80;100642.78;5118437;28;20138;-50
2021/09/05 09:34:42;;;;;;;4.78;4.07;;;;;;;22.15;36.08;100635.47;5118176;28;20071;-49
2021/09/05 09:37:12;;;;;;;4.07;2.75;;;;;;;22.27;38.29;100637.44;5118337;28;20047;-50
2021/09/05 09:39:56;;;;;;;4.15;2.58;;;;;;;22.50;37.27;100635.19;5117393;28;20048;-50
2021/09/05 09:42:35;;;;;;;4.45;3.30;;;;;;;22.21;37.50;100639.63;5117594;28;20047;-50
2021/09/05 09:45:03;;;;;;;7.43;3.22;;;;;;;22.32;36.76;100632.66;5118235;28;20115;-50
2021/09/05 09:47:57;;;;;;;2.63;1.80;;;;;;;22.32;37.23;100634.50;5117243;28;20048;-50
2021/09/05 09:50:22;;;;;;;4.43;1.70;;;;;;;22.28;35.83;100639.16;5117821;28;20048;-50
2021/09/05 09:52:48;;;;;;;1.50;0.85;;;;;;;22.44;37.08;100639.09;5117401;28;20055;-50
2021/09/05 09:55:14;;;;;;;2.97;1.40;;;;;;;22.44;37.10;100643.56;5117976;28;20047;-50
2021/09/05 09:57:40;;;;;;;3.08;1.60;;;;;;;22.49;38.16;100646.78;5117959;28;20439;-50
2021/09/05 10:00:07;;;;;;;6.18;1.40;;;;;;;22.61;37.98;100643.38;5116681;28;20070;-50
2021/09/05 10:02:38;;;;;;;2.20;1.45;;;;;;;22.69;38.93;100634.91;5117639;28;20055;-50
2021/09/05 10:05:04;;;;;;;2.17;1.17;;;;;;;22.76;36.93;100639.75;5117795;28;20131;-50
2021/09/05 10:07:31;;;;;;;1.85;1.25;;;;;;;22.85;37.46;100636.50;5117211;28;20054;-50
2021/09/05 10:09:58;;;;;;;4.90;1.98;;;;;;;22.85;35.83;100633.84;5099644;28;20433;-50
2021/09/05 10:12:23;;;;;;;3.20;0.98;;;;;;;23.03;37.75;100636.31;5100103;28;20039;-50
2021/09/05 10:14:53;;;;;;;2.67;0.80;;;;;;;23.02;36.97;100627.47;5117585;28;20138;-50
2021/09/05 10:17:20;;;;;;;1.60;1.23;;;;;;;23.07;37.73;100635.16;5117571;28;20434;-50
2021/09/05 10:19:46;;;;;;;2.72;1.25;;;;;;;23.24;38.06;100634.09;5116553;28;20047;-50
2021/09/05 10:22:11;;;;;;;2.70;1.08;;;;;;;23.27;37.02;100634.75;5117059;28;20056;-50
2021/09/05 10:24:46;;;;;;;2.28;1.00;;;;;;;23.33;36.11;100631.69;5116209;28;20059;-50
2021/09/05 10:27:13;;;;;;;1.67;0.93;;;;;;;23.19;38.01;100631.72;5099637;28;20048;-50
2021/09/05 10:30:00;;;;;;;1.95;0.90;;;;;;;23.27;37.19;100626.75;5116991;28;20059;-50
2021/09/05 10:32:50;;;;;;;2.40;0.90;;;;;;;23.30;35.37;100626.53;5102297;28;20079;-50
2021/09/05 10:35:25;;;;;;;3.63;1.20;;;;;;;23.26;35.58;100624.16;5117272;28;20058;-50
2021/09/05 10:38:14;;;;;;;4.13;1.17;;;;;;;23.14;35.79;100617.81;5117031;28;20085;-50
2021/09/05 10:40:40;;;;;;;1.80;1.13;;;;;;;23.16;36.16;100625.72;5117038;28;20040;-50
2021/09/05 10:43:06;;;;;;;1.95;0.93;;;;;;;23.24;37.49;100616.25;5116858;28;20045;-50
2021/09/05 10:45:33;;;;;;;2.22;1.20;;;;;;;23.26;36.85;100621.47;5117320;28;20059;-50
2021/09/05 10:48:00;;;;;;;2.17;1.10;;;;;;;23.35;37.35;100620.03;5116776;28;20044;-50
2021/09/05 10:50:32;;;;;;;3.67;0.77;;;;;;;23.48;37.00;100620.94;5117002;27;20134;-50
2021/09/05 10:53:18;;;;;;;2.17;0.95;;;;;;;23.47;36.45;100619.22;5117019;28;20047;-50
2021/09/05 10:56:06;;;;;;;1.77;0.80;;;;;;;23.40;35.69;100618.78;5116807;28;20048;-50
2021/09/05 10:58:40;;;;;;;1.40;0.60;;;;;;;23.53;36.34;100614.34;5116904;28;20090;-50
2021/09/05 11:01:23;;;;;;;2.47;1.10;;;;;;;23.49;36.06;100614.63;5116185;28;20077;-50
2021/09/05 11:04:25;;;;;;;1.20;0.73;;;;;;;23.47;36.50;100630.78;5116905;28;20140;-50
2021/09/05 11:07:00;;;;;;;2.63;0.80;;;;;;;23.56;35.51;100626.63;5041674;28;20354;-50
2021/09/05 11:09:26;;;;;;;2.53;0.70;;;;;;;23.55;36.29;100617.75;5111241;28;20120;-50
2021/09/05 11:12:12;;;;;;;1.17;0.70;;;;;;;23.58;35.79;100610.50;5116398;28;20497;-50
2021/09/05 11:14:40;;;;;;;1.88;0.90;;;;;;;23.28;34.20;100625.78;5116223;28;20469;-50
2021/09/05 11:17:07;;;;;;;2.25;0.93;;;;;;;23.12;34.02;100624.19;5116522;28;20043;-50
2021/09/05 11:19:46;;;;;;;2.53;0.70;;;;;;;23.27;35.20;100628.56;5116368;28;20040;-50
2021/09/05 11:22:33;;;;;;;1.67;0.98;;;;;;;23.30;35.64;100626.53;5116558;28;20059;-50
2021/09/05 11:25:16;;;;;;;1.30;0.80;;;;;;;23.32;34.54;100618.41;5115661;28;20035;-50
2021/09/05 11:28:04;;;;;;;1.92;1.10;;;;;;;23.42;36.22;100622.19;5116637;28;20047;-50
2021/09/05 11:30:31;;;;;;;1.20;0.60;;;;;;;23.20;33.42;100620.06;5116619;28;20066;-50
2021/09/05 11:33:03;;;;;;;1.15;0.50;;;;;;;23.33;35.49;100626.34;5116605;28;20044;-50
2021/09/05 11:35:40;;;;;;;3.08;0.80;;;;;;;23.52;35.83;100622.44;5116600;28;20051;-50
2021/09/05 11:38:07;;;;;;;3.20;1.00;;;;;;;23.28;34.29;100615.09;5082221;28;20047;-50
2021/09/05 11:40:42;;;;;;;1.85;0.80;;;;;;;23.37;37.28;100631.47;5116443;28;20323;-50
2021/09/05 11:43:09;;;;;;;1.80;1.23;;;;;;;23.40;35.44;100625.91;5115865;28;20055;-50
2021/09/05 11:45:38;;;;;;;1.70;0.93;;;;;;;23.48;36.13;100618.25;5115501;28;20085;-50
2021/09/05 11:48:06;;;;;;;1.60;1.08;;;;;;;23.54;36.38;100624.06;5116129;28;20179;-50
2021/09/05 11:50:32;;;;;;;1.50;1.20;;;;;;;23.47;35.26;100628.09;5115331;28;20335;-50